Time;durP1;ratioP1;P1;durP2;ratioP2;P2;SDS_P1;SDS_P2;PMS_P1;PMS_P2;Temp;Humidity;BMP_temperature;BMP_pressure;BME280_temperature;BME280_humidity;BME280_pressure;Samples;Min_cycle;Max_cycle;Signal;HPM_P1;HPM_P2
2023/03/21 00:03:58;;;;;;;25.23;20.17;;;;;;;6.94;100.00;101551.31;10255544;28;20410;-81
2023/03/21 00:08:54;;;;;;;23.35;18.63;;;;;;;6.99;100.00;101550.50;10239826;28;20125;-79
2023/03/21 00:13:52;;;;;;;24.60;20.92;;;;;;;7.00;100.00;101537.72;10202943;28;20045;-78
2023/03/21 00:18:51;;;;;;;25.80;20.35;;;;;;;6.98;100.00;101545.31;10218791;28;20047;-80
2023/03/21 00:23:48;;;;;;;27.60;21.33;;;;;;;6.92;100.00;101531.72;10186354;28;20049;-77
2023/03/21 00:28:45;;;;;;;28.83;21.92;;;;;;;7.05;100.00;101545.84;10219056;28;20073;-76
2023/03/21 00:33:47;;;;;;;29.95;23.35;;;;;;;7.02;100.00;101540.97;10230918;28;20045;-80
2023/03/21 00:39:05;;;;;;;26.30;20.67;;;;;;;6.96;100.00;101534.69;10216466;28;20087;-74
2023/03/21 00:44:02;;;;;;;27.88;21.30;;;;;;;6.95;100.00;101531.19;10219053;28;20046;-74
2023/03/21 00:48:59;;;;;;;29.05;22.45;;;;;;;6.92;100.00;101526.28;10210870;28;20080;-74
2023/03/21 00:53:57;;;;;;;29.52;22.63;;;;;;;6.89;100.00;101526.00;10220510;28;20132;-80
2023/03/21 00:58:53;;;;;;;30.58;22.80;;;;;;;6.92;100.00;101520.84;10219169;28;20084;-79
2023/03/21 01:04:02;;;;;;;32.30;23.77;;;;;;;6.97;100.00;101521.94;10222834;28;20046;-79
2023/03/21 01:08:58;;;;;;;33.03;24.17;;;;;;;6.93;100.00;101508.06;10229083;28;20080;-78
2023/03/21 01:13:56;;;;;;;30.58;21.75;;;;;;;6.93;100.00;101514.31;10228285;28;20140;-78
2023/03/21 01:19:12;;;;;;;35.95;24.42;;;;;;;6.94;100.00;101518.69;10229398;28;20045;-78
2023/03/21 01:24:19;;;;;;;38.67;26.48;;;;;;;6.92;100.00;101511.91;10225360;28;20099;-78
2023/03/21 01:29:16;;;;;;;33.42;24.20;;;;;;;6.94;100.00;101502.38;10214210;28;20525;-78
2023/03/21 01:34:12;;;;;;;35.08;24.02;;;;;;;7.00;100.00;101505.06;10208533;28;20037;-74
2023/03/21 01:39:09;;;;;;;36.42;26.02;;;;;;;7.03;100.00;101507.25;10219423;28;20052;-74
2023/03/21 01:44:08;;;;;;;35.42;25.75;;;;;;;7.08;100.00;101507.25;10225536;28;20057;-78
2023/03/21 01:49:28;;;;;;;36.55;26.08;;;;;;;7.06;100.00;101504.00;10208882;28;20513;-78
2023/03/21 01:54:31;;;;;;;42.75;30.83;;;;;;;7.04;100.00;101500.72;10217235;28;20159;-77
2023/03/21 01:59:38;;;;;;;46.20;31.20;;;;;;;7.02;100.00;101498.28;10215342;28;20950;-78
2023/03/21 02:04:37;;;;;;;38.42;26.60;;;;;;;7.05;100.00;101491.47;10206214;28;20045;-78
2023/03/21 02:09:36;;;;;;;40.40;27.50;;;;;;;7.05;100.00;101491.47;10217221;28;20065;-75
2023/03/21 02:14:35;;;;;;;41.58;28.23;;;;;;;7.12;100.00;101481.91;10217726;28;20068;-73
2023/03/21 02:20:10;;;;;;;38.10;27.05;;;;;;;7.05;100.00;101480.59;10220521;28;20080;-75
2023/03/21 02:25:25;;;;;;;38.85;27.60;;;;;;;7.08;100.00;101477.34;10221665;28;20096;-74
2023/03/21 02:30:39;;;;;;;36.67;27.05;;;;;;;7.11;100.00;101474.06;10222843;28;20049;-75
2023/03/21 02:36:15;;;;;;;37.40;25.83;;;;;;;7.06;100.00;101471.34;10221790;28;20405;-75
2023/03/21 02:41:25;;;;;;;43.47;28.88;;;;;;;7.03;100.00;101477.31;10216838;28;20042;-77
2023/03/21 02:46:40;;;;;;;39.45;26.17;;;;;;;7.09;100.00;101470.78;10215101;28;20129;-74
2023/03/21 02:51:47;;;;;;;36.85;26.65;;;;;;;7.09;100.00;101465.34;10218610;28;20089;-73
2023/03/21 02:56:45;;;;;;;38.13;26.42;;;;;;;7.07;100.00;101462.91;10212324;28;20049;-73
2023/03/21 03:01:42;;;;;;;41.25;27.25;;;;;;;7.02;100.00;101470.28;10212236;28;20275;-73
2023/03/21 03:07:02;;;;;;;39.63;27.08;;;;;;;7.08;100.00;101464.56;10210335;28;20536;-75
2023/03/21 03:12:12;;;;;;;41.38;29.60;;;;;;;7.18;100.00;101458.25;10228368;28;20618;-73
2023/03/21 03:17:20;;;;;;;40.65;26.70;;;;;;;7.23;100.00;101452.81;10224676;28;20133;-74
2023/03/21 03:22:28;;;;;;;44.00;28.42;;;;;;;7.19;100.00;101449.00;10226089;28;20041;-74
2023/03/21 03:27:31;;;;;;;40.00;27.80;;;;;;;7.20;100.00;101439.75;10231585;28;20521;-76
2023/03/21 03:32:37;;;;;;;42.20;29.08;;;;;;;7.23;100.00;101433.75;10221295;28;20052;-74
2023/03/21 03:37:36;;;;;;;46.28;29.92;;;;;;;7.23;100.00;101438.41;10227083;28;20045;-74
2023/03/21 03:42:42;;;;;;;44.47;30.75;;;;;;;7.24;100.00;101435.41;10225786;28;20046;-74
2023/03/21 03:48:21;;;;;;;40.83;29.75;;;;;;;7.28;100.00;101435.66;10218445;28;20153;-73
2023/03/21 03:53:38;;;;;;;41.80;29.55;;;;;;;7.25;100.00;101437.03;10196036;28;20051;-75
2023/03/21 03:58:37;;;;;;;46.60;31.33;;;;;;;7.27;100.00;101437.56;10226094;28;20592;-75
2023/03/21 04:03:44;;;;;;;45.17;30.15;;;;;;;7.29;100.00;101440.00;10215155;28;20989;-76
2023/03/21 04:08:49;;;;;;;42.83;29.73;;;;;;;7.34;100.00;101429.91;10205540;28;20049;-76
2023/03/21 04:13:46;;;;;;;42.22;30.00;;;;;;;7.35;100.00;101436.16;10222016;28;20041;-76
2023/03/21 04:18:42;;;;;;;38.53;26.90;;;;;;;7.31;100.00;101430.47;10223144;28;20042;-75
2023/03/21 04:23:40;;;;;;;38.92;28.05;;;;;;;7.40;100.00;101435.31;10213324;28;20080;-75
2023/03/21 04:28:37;;;;;;;43.20;28.10;;;;;;;7.34;100.00;101429.91;10222545;28;20499;-75
2023/03/21 04:33:37;;;;;;;38.90;28.60;;;;;;;7.37;100.00;101429.34;10221863;28;20068;-75
2023/03/21 04:38:35;;;;;;;41.75;27.80;;;;;;;7.44;100.00;101428.25;10212631;28;20507;-75
2023/03/21 04:43:31;;;;;;;41.10;29.98;;;;;;;7.48;100.00;101429.31;10212845;28;20048;-77
2023/03/21 04:48:28;;;;;;;41.85;28.60;;;;;;;7.46;100.00;101434.22;10213565;28;20041;-77
2023/03/21 04:53:24;;;;;;;36.13;27.80;;;;;;;7.46;100.00;101426.06;10215360;28;20179;-73
2023/03/21 04:58:21;;;;;;;40.95;29.17;;;;;;;7.47;100.00;101422.22;10219065;28;20107;-75
2023/03/21 05:03:21;;;;;;;50.90;33.65;;;;;;;7.41;100.00;101428.81;10220609;28;20467;-75
2023/03/21 05:08:17;;;;;;;39.22;28.08;;;;;;;7.45;100.00;101429.84;10214034;28;20084;-76
2023/03/21 05:13:14;;;;;;;51.17;33.05;;;;;;;7.41;100.00;101423.38;10222913;28;20422;-79
2023/03/21 05:18:10;;;;;;;42.17;31.00;;;;;;;7.44;100.00;101423.59;10203948;28;20054;-78
2023/03/21 05:23:10;;;;;;;41.65;29.73;;;;;;;7.38;100.00;101425.56;10223252;28;20080;-76
2023/03/21 05:28:07;;;;;;;41.58;28.70;;;;;;;7.42;100.00;101424.97;10210677;28;20058;-75
2023/03/21 05:33:04;;;;;;;42.65;30.42;;;;;;;7.43;100.00;101426.63;10211231;28;20076;-76
2023/03/21 05:38:00;;;;;;;48.33;31.60;;;;;;;7.41;100.00;101424.19;10219631;28;20415;-74
2023/03/21 05:42:56;;;;;;;50.58;34.38;;;;;;;7.40;100.00;101416.28;10210493;28;20038;-74
2023/03/21 05:47:53;;;;;;;44.42;31.90;;;;;;;7.46;100.00;101415.19;10215002;28;20132;-74
2023/03/21 05:52:50;;;;;;;45.42;30.83;;;;;;;7.50;100.00;101405.38;10213330;28;20044;-74
2023/03/21 05:57:46;;;;;;;57.47;36.40;;;;;;;7.52;100.00;101408.59;10218264;28;20737;-74
2023/03/21 06:02:44;;;;;;;52.33;34.25;;;;;;;7.60;100.00;101402.56;10214807;28;20550;-74
2023/03/21 06:07:40;;;;;;;53.17;36.30;;;;;;;7.55;100.00;101410.78;10201045;28;20045;-74
2023/03/21 06:12:37;;;;;;;51.92;33.83;;;;;;;7.55;100.00;101408.06;10202184;28;20042;-74
2023/03/21 06:17:33;;;;;;;53.60;37.22;;;;;;;7.59;100.00;101403.69;10198554;28;20551;-75
2023/03/21 06:22:31;;;;;;;46.88;33.00;;;;;;;7.62;100.00;101397.66;10181943;28;20049;-74
2023/03/21 06:27:27;;;;;;;47.72;33.40;;;;;;;7.65;100.00;101386.22;10204631;28;20046;-74
2023/03/21 06:32:24;;;;;;;45.28;31.50;;;;;;;7.63;100.00;101393.03;10210088;28;20142;-75
2023/03/21 06:37:21;;;;;;;52.72;36.38;;;;;;;7.61;100.00;101390.59;10223066;28;20072;-74
2023/03/21 06:42:18;;;;;;;53.55;36.22;;;;;;;7.59;100.00;101398.25;10220926;28;20129;-74
2023/03/21 06:47:15;;;;;;;50.25;34.42;;;;;;;7.57;100.00;101389.53;10213049;28;20046;-74
2023/03/21 06:52:11;;;;;;;52.92;35.80;;;;;;;7.61;100.00;101398.75;10221059;28;20124;-74
2023/03/21 06:57:08;;;;;;;52.17;34.20;;;;;;;7.68;100.00;101396.56;10227750;28;20049;-74
2023/03/21 07:02:04;;;;;;;57.65;37.75;;;;;;;7.70;100.00;101405.22;10230239;28;20041;-74
2023/03/21 07:07:01;;;;;;;68.60;40.92;;;;;;;7.72;100.00;101405.75;10230833;28;20456;-74
2023/03/21 07:11:57;;;;;;;54.38;35.85;;;;;;;7.75;100.00;101402.50;10226990;28;20060;-74
2023/03/21 07:16:54;;;;;;;73.25;44.08;;;;;;;7.77;100.00;101405.75;10227474;28;20075;-74
2023/03/21 07:21:51;;;;;;;60.65;41.13;;;;;;;7.85;100.00;101407.06;10213743;28;20057;-75
2023/03/21 07:26:48;;;;;;;65.75;40.10;;;;;;;7.95;100.00;101400.72;10227384;28;20045;-75
2023/03/21 07:31:44;;;;;;;67.00;40.83;;;;;;;7.93;100.00;101402.91;10218995;28;20221;-75
2023/03/21 07:36:41;;;;;;;69.70;42.45;;;;;;;7.97;100.00;101404.78;10209098;28;20064;-75
2023/03/21 07:41:37;;;;;;;66.15;43.03;;;;;;;7.94;100.00;101396.38;10219046;28;20053;-74
2023/03/21 07:46:34;;;;;;;63.67;41.55;;;;;;;8.07;100.00;101398.44;10205535;28;20042;-74
2023/03/21 07:51:30;;;;;;;68.05;44.22;;;;;;;8.14;100.00;101398.13;10215790;28;20067;-75
2023/03/21 07:56:27;;;;;;;61.25;41.25;;;;;;;8.14;100.00;101392.69;10191687;28;20829;-75
2023/03/21 08:01:25;;;;;;;55.45;37.65;;;;;;;8.10;100.00;101400.63;10228539;28;20045;-75
2023/03/21 08:06:25;;;;;;;51.08;32.97;;;;;;;8.09;100.00;101400.88;10195095;28;20047;-74
2023/03/21 08:11:23;;;;;;;53.17;35.58;;;;;;;8.07;100.00;101393.00;10227617;28;20061;-75
2023/03/21 08:16:20;;;;;;;46.63;32.65;;;;;;;8.09;100.00;101401.69;10224888;28;20136;-75
2023/03/21 08:21:16;;;;;;;46.53;31.65;;;;;;;8.18;100.00;101394.53;10221310;28;20095;-75
2023/03/21 08:26:17;;;;;;;57.13;35.60;;;;;;;8.13;100.00;101386.41;10221174;28;20045;-75
2023/03/21 08:31:13;;;;;;;59.88;40.00;;;;;;;8.28;100.00;101392.84;10215787;28;20037;-75
2023/03/21 08:36:10;;;;;;;58.00;37.63;;;;;;;8.25;100.00;101388.78;10210333;28;20077;-75
2023/03/21 08:41:06;;;;;;;55.47;35.83;;;;;;;8.34;100.00;101387.06;10212502;28;20103;-74
2023/03/21 08:46:03;;;;;;;47.25;32.97;;;;;;;8.32;100.00;101383.00;10207305;28;20076;-74
2023/03/21 08:51:00;;;;;;;55.10;35.72;;;;;;;8.37;100.00;101388.41;10211236;28;20042;-75
2023/03/21 08:55:56;;;;;;;43.00;31.00;;;;;;;8.39;100.00;101394.38;10195044;28;20052;-74
2023/03/21 09:00:53;;;;;;;45.38;30.70;;;;;;;8.40;100.00;101387.84;10222531;28;20411;-74
2023/03/21 09:05:52;;;;;;;45.15;33.63;;;;;;;8.30;100.00;101382.47;10212245;28;20049;-75
2023/03/21 09:10:53;;;;;;;49.92;31.58;;;;;;;8.36;100.00;101386.78;10220678;28;20052;-74
2023/03/21 09:15:49;;;;;;;41.80;29.90;;;;;;;8.45;100.00;101387.81;10211247;28;20049;-75
2023/03/21 09:20:47;;;;;;;46.60;32.90;;;;;;;8.50;100.00;101379.59;10223874;28;20049;-74
2023/03/21 09:25:46;;;;;;;44.40;30.63;;;;;;;8.48;100.00;101387.25;10220190;28;20046;-74
2023/03/21 09:30:43;;;;;;;46.20;33.30;;;;;;;8.55;100.00;101386.91;10191957;28;20121;-74
2023/03/21 09:35:40;;;;;;;41.00;30.05;;;;;;;8.62;100.00;101380.00;10213404;28;20403;-74
2023/03/21 09:40:56;;;;;;;48.00;33.45;;;;;;;8.79;100.00;101376.00;10212826;28;20070;-74
2023/03/21 09:46:09;;;;;;;50.28;32.38;;;;;;;8.88;100.00;101371.53;10207784;28;20095;-74
2023/03/21 09:51:09;;;;;;;;;;;;;;;8.96;100.00;101370.13;10225161;28;20103;-74
2023/03/21 09:56:11;;;;;;;49.20;33.10;;;;;;;8.95;100.00;101369.28;10208266;28;19948;-74
2023/03/21 10:01:27;;;;;;;51.60;35.83;;;;;;;8.97;100.00;101369.81;10227047;28;20056;-74
2023/03/21 10:06:28;;;;;;;51.38;35.10;;;;;;;8.96;100.00;101365.47;10224783;28;20408;-74
2023/03/21 10:11:30;;;;;;;46.13;32.60;;;;;;;8.98;100.00;101373.34;10214016;28;20118;-74
2023/03/21 10:16:41;;;;;;;49.15;33.30;;;;;;;9.05;100.00;101366.44;10223987;28;20470;-74
2023/03/21 10:21:45;;;;;;;45.67;30.67;;;;;;;9.06;100.00;101359.88;10224239;28;20569;-74
2023/03/21 10:27:00;;;;;;;47.15;31.33;;;;;;;9.22;100.00;101362.41;10231780;28;20132;-74
2023/03/21 10:31:57;;;;;;;41.67;29.38;;;;;;;9.06;100.00;101348.97;10228117;28;20092;-74
2023/03/21 10:36:53;;;;;;;40.80;27.90;;;;;;;9.02;100.00;101347.09;10229615;28;20056;-74
2023/03/21 10:41:50;;;;;;;36.85;26.40;;;;;;;9.00;100.00;101349.31;10234314;28;20128;-74
2023/03/21 10:46:53;;;;;;;38.30;27.83;;;;;;;9.11;100.00;101344.56;10212387;28;20077;-75
2023/03/21 10:51:50;;;;;;;;;;;;;;;9.11;100.00;101344.56;10222040;28;20049;-74
2023/03/21 10:56:56;;;;;;;49.17;25.55;;;;;;;9.12;100.00;101346.16;10218579;28;19924;-74
2023/03/21 11:01:55;;;;;;;38.22;26.70;;;;;;;9.03;100.00;101333.19;10205168;28;20052;-74
2023/03/21 11:06:56;;;;;;;37.22;26.50;;;;;;;9.10;100.00;101342.91;10228740;28;20096;-74
2023/03/21 11:11:52;;;;;;;35.15;25.50;;;;;;;9.11;100.00;101339.09;10202096;28;20076;-74
2023/03/21 11:16:49;;;;;;;34.42;26.05;;;;;;;9.05;100.00;101325.53;10218810;28;20710;-74
2023/03/21 11:21:46;;;;;;;38.40;26.95;;;;;;;9.10;100.00;101326.53;10222524;28;20094;-74
2023/03/21 11:26:46;;;;;;;36.75;24.95;;;;;;;9.08;100.00;101329.59;10225317;28;20063;-74
2023/03/21 11:31:43;;;;;;;36.30;24.33;;;;;;;9.11;100.00;101328.19;10222871;28;20101;-74
2023/03/21 11:36:40;;;;;;;32.38;24.77;;;;;;;9.27;100.00;101315.97;10216870;28;20045;-74
2023/03/21 11:41:39;;;;;;;31.80;23.42;;;;;;;9.43;100.00;101309.16;10227706;28;20052;-74
2023/03/21 11:46:39;;;;;;;36.25;24.42;;;;;;;9.44;100.00;101313.50;10215660;28;20071;-75
2023/03/21 11:51:52;;;;;;;38.30;26.33;;;;;;;9.40;100.00;101304.31;10231844;28;20051;-74
2023/03/21 11:57:21;;;;;;;36.78;25.02;;;;;;;9.24;100.00;101297.47;10218601;28;20081;-75
2023/03/21 12:02:36;;;;;;;35.72;26.77;;;;;;;9.28;100.00;101290.28;10224631;28;20521;-75
2023/03/21 12:07:51;;;;;;;34.05;24.92;;;;;;;9.26;100.00;101287.06;10222119;28;20068;-74
2023/03/21 12:13:10;;;;;;;41.53;23.13;;;;;;;9.39;100.00;101275.38;10217010;28;20042;-74
2023/03/21 12:18:28;;;;;;;30.80;20.52;;;;;;;9.55;100.00;101272.44;10220870;28;20068;-74
2023/03/21 12:23:43;;;;;;;31.25;20.92;;;;;;;9.53;100.00;101263.72;10217597;28;20515;-74
2023/03/21 12:28:51;;;;;;;25.33;20.30;;;;;;;9.39;100.00;101253.53;10214375;28;20064;-74
2023/03/21 12:34:07;;;;;;;29.90;20.63;;;;;;;9.53;100.00;101252.81;10226493;28;20034;-74
2023/03/21 12:39:24;;;;;;;19.52;16.05;;;;;;;9.42;100.00;101252.13;10214979;28;20095;-74
2023/03/21 12:44:25;;;;;;;21.42;16.67;;;;;;;9.35;100.00;101241.63;10223811;28;20064;-74
2023/03/21 12:49:40;;;;;;;21.38;16.35;;;;;;;9.31;100.00;101232.41;10213792;28;20057;-74
2023/03/21 12:54:43;;;;;;;22.60;16.80;;;;;;;9.26;100.00;101237.94;10188597;28;20076;-74
2023/03/21 13:00:12;;;;;;;17.88;15.35;;;;;;;9.21;100.00;101232.53;10218245;28;20042;-74
2023/03/21 13:05:29;;;;;;;20.60;16.25;;;;;;;9.19;100.00;101227.41;10213116;28;20085;-74
2023/03/21 13:10:26;;;;;;;18.38;14.55;;;;;;;9.21;100.00;101217.00;10220460;28;20076;-74
2023/03/21 13:15:36;;;;;;;22.17;15.32;;;;;;;9.22;100.00;101215.06;10218536;28;20511;-74
2023/03/21 13:20:38;;;;;;;20.58;15.88;;;;;;;9.26;100.00;101216.13;10222547;28;20046;-74
2023/03/21 13:25:45;;;;;;;17.50;13.57;;;;;;;9.24;100.00;101210.13;10217871;28;20511;-74
2023/03/21 13:30:42;;;;;;;18.50;15.00;;;;;;;9.24;100.00;101201.97;10223403;28;20045;-74
2023/03/21 13:35:41;;;;;;;18.15;13.55;;;;;;;9.23;100.00;101200.31;10210499;28;20050;-74
2023/03/21 13:40:46;;;;;;;17.85;13.82;;;;;;;9.22;100.00;101193.25;10214866;28;20061;-74
2023/03/21 13:45:52;;;;;;;15.23;12.20;;;;;;;9.23;100.00;101183.94;10213001;28;20046;-74
2023/03/21 13:50:52;;;;;;;17.95;12.93;;;;;;;9.30;100.00;101192.56;10207530;28;20458;-74
2023/03/21 13:56:05;;;;;;;15.20;13.15;;;;;;;9.36;100.00;101188.66;10213121;28;20065;-74
2023/03/21 14:01:26;;;;;;;20.85;14.45;;;;;;;9.32;100.00;101190.34;10223536;28;20727;-74
2023/03/21 14:06:25;;;;;;;16.63;13.30;;;;;;;9.32;100.00;101182.16;10207928;28;20038;-74
2023/03/21 14:11:22;;;;;;;17.58;14.32;;;;;;;9.25;100.00;101177.09;10226420;28;20046;-74
2023/03/21 14:16:20;;;;;;;16.80;13.38;;;;;;;9.19;100.00;101172.00;10219146;28;20679;-75
2023/03/21 14:21:30;;;;;;;19.67;14.75;;;;;;;9.20;100.00;101176.38;10214733;28;20056;-75
2023/03/21 14:26:31;;;;;;;20.08;15.70;;;;;;;9.17;100.00;101168.78;10214176;28;20065;-75
2023/03/21 14:31:28;;;;;;;16.65;13.43;;;;;;;9.22;100.00;101168.69;10220727;28;20076;-75
2023/03/21 14:36:31;;;;;;;19.30;15.70;;;;;;;9.13;100.00;101162.28;10218939;28;20475;-75
2023/03/21 14:41:30;;;;;;;21.98;14.95;;;;;;;9.06;100.00;101163.47;10201714;28;20057;-75
2023/03/21 14:46:26;;;;;;;20.30;15.77;;;;;;;9.05;100.00;101153.69;10207541;28;20041;-75
2023/03/21 14:51:23;;;;;;;21.20;15.02;;;;;;;9.04;100.00;101149.31;10214497;28;20046;-75
2023/03/21 14:56:22;;;;;;;19.58;14.68;;;;;;;9.07;100.00;101153.38;10182690;28;20076;-75
2023/03/21 15:01:33;;;;;;;20.38;14.55;;;;;;;9.14;100.00;101139.34;10220263;28;20045;-75
2023/03/21 15:06:31;;;;;;;19.65;15.68;;;;;;;9.17;100.00;101136.84;10225122;28;20048;-75
2023/03/21 15:11:29;;;;;;;19.90;15.02;;;;;;;9.18;100.00;101126.75;10222350;28;20050;-75
2023/03/21 15:16:26;;;;;;;18.92;14.05;;;;;;;9.12;100.00;101119.75;10219434;28;20096;-74
2023/03/21 15:21:31;;;;;;;16.52;13.18;;;;;;;9.17;100.00;101116.94;10208192;28;20526;-75
2023/03/21 15:26:30;;;;;;;17.33;14.48;;;;;;;9.12;100.00;101111.56;10217291;28;20080;-75
2023/03/21 15:31:34;;;;;;;18.63;13.95;;;;;;;9.08;100.00;101111.34;10232067;28;20052;-75
2023/03/21 15:36:36;;;;;;;17.25;13.65;;;;;;;9.06;100.00;101111.66;10231072;28;20072;-75
2023/03/21 15:41:33;;;;;;;16.97;13.90;;;;;;;9.05;100.00;101112.75;10222095;28;20103;-75
2023/03/21 15:46:47;;;;;;;14.68;12.15;;;;;;;8.89;100.00;101108.66;10214457;28;20678;-76
2023/03/21 15:51:52;;;;;;;18.85;12.50;;;;;;;8.93;100.00;101098.75;10230308;28;20072;-76
2023/03/21 15:56:53;;;;;;;14.68;12.43;;;;;;;8.92;100.00;101102.59;10226806;28;20072;-75
2023/03/21 16:01:50;;;;;;;13.88;12.07;;;;;;;8.87;100.00;101099.97;10208162;28;20049;-75
2023/03/21 16:07:02;;;;;;;13.60;12.05;;;;;;;8.75;100.00;101091.41;10214433;28;20054;-75
2023/03/21 16:11:58;;;;;;;15.88;11.35;;;;;;;8.64;100.00;101102.47;10206557;28;20407;-75
2023/03/21 16:16:57;;;;;;;15.48;12.40;;;;;;;8.59;100.00;101094.38;10221718;28;20137;-75
2023/03/21 16:21:54;;;;;;;15.48;11.10;;;;;;;8.60;100.00;101106.91;10213603;28;20089;-75
2023/03/21 16:26:52;;;;;;;12.68;10.95;;;;;;;8.57;100.00;101102.03;10216912;28;20081;-75
2023/03/21 16:31:49;;;;;;;11.90;10.63;;;;;;;8.55;100.00;101104.25;10217324;28;20069;-75
2023/03/21 16:36:45;;;;;;;15.43;10.32;;;;;;;8.53;100.00;101090.09;10222178;28;20052;-75
2023/03/21 16:41:42;;;;;;;15.57;12.13;;;;;;;8.54;100.00;101096.34;10211980;28;20488;-75
2023/03/21 16:46:39;;;;;;;17.63;11.23;;;;;;;8.51;100.00;101092.31;10220021;28;20140;-75
2023/03/21 16:51:35;;;;;;;14.20;11.30;;;;;;;8.49;100.00;101078.16;10218207;28;20487;-74
2023/03/21 16:56:43;;;;;;;15.70;11.52;;;;;;;8.50;100.00;101079.81;10233609;28;20049;-74
2023/03/21 17:01:41;;;;;;;15.65;12.50;;;;;;;8.46;100.00;101084.22;10217649;28;20496;-74
2023/03/21 17:06:57;;;;;;;16.42;12.77;;;;;;;8.50;100.00;101085.25;10214443;28;20418;-74
2023/03/21 17:11:54;;;;;;;15.45;12.63;;;;;;;8.46;100.00;101083.41;10210932;28;20054;-74
2023/03/21 17:16:50;;;;;;;14.70;12.60;;;;;;;8.50;100.00;101085.25;10201511;28;20072;-74
2023/03/21 17:21:47;;;;;;;15.32;13.55;;;;;;;8.51;100.00;101081.41;10206879;28;20051;-73
2023/03/21 17:26:44;;;;;;;16.60;12.50;;;;;;;8.48;100.00;101087.47;10207002;28;20507;-74
2023/03/21 17:31:41;;;;;;;15.40;13.60;;;;;;;8.48;100.00;101087.47;10211736;28;20041;-74
2023/03/21 17:36:40;;;;;;;16.65;13.25;;;;;;;8.42;100.00;101083.16;10215923;28;20795;-74
2023/03/21 17:41:38;;;;;;;21.10;14.65;;;;;;;8.42;100.00;101083.16;10216533;28;20502;-75
2023/03/21 17:46:36;;;;;;;17.10;13.25;;;;;;;8.47;100.00;101091.31;10213478;28;20152;-74
2023/03/21 17:51:32;;;;;;;19.00;15.40;;;;;;;8.53;100.00;101089.31;10213426;28;20041;-74
2023/03/21 17:56:30;;;;;;;20.38;16.38;;;;;;;8.54;100.00;101093.63;10217848;28;20069;-75
2023/03/21 18:01:29;;;;;;;19.15;14.10;;;;;;;8.51;100.00;101088.78;10195775;28;20048;-73
2023/03/21 18:06:26;;;;;;;18.58;14.02;;;;;;;8.49;100.00;101097.25;10214594;28;20624;-72
2023/03/21 18:11:23;;;;;;;19.88;15.15;;;;;;;8.44;100.00;101091.88;10220823;28;20049;-74
2023/03/21 18:16:23;;;;;;;18.13;13.80;;;;;;;8.44;100.00;101091.88;10212065;28;20072;-75
2023/03/21 18:21:20;;;;;;;19.25;14.75;;;;;;;8.46;100.00;101089.66;10215436;28;20034;-74
2023/03/21 18:26:20;;;;;;;22.70;14.65;;;;;;;8.53;100.00;101079.19;10211226;28;20137;-75
2023/03/21 18:31:19;;;;;;;21.92;15.82;;;;;;;8.55;100.00;101087.09;10194278;28;20133;-74
2023/03/21 18:36:20;;;;;;;18.60;15.35;;;;;;;8.55;100.00;101077.00;10221712;28;20082;-75
2023/03/21 18:41:24;;;;;;;20.98;15.70;;;;;;;8.56;100.00;101083.25;10219206;28;20168;-75
2023/03/21 18:46:21;;;;;;;25.63;16.50;;;;;;;8.53;100.00;101068.31;10210567;28;20052;-74
2023/03/21 18:51:18;;;;;;;24.77;16.35;;;;;;;8.42;100.00;101059.47;10225711;28;20050;-74
2023/03/21 18:56:16;;;;;;;18.95;15.90;;;;;;;8.43;100.00;101073.91;10220974;28;20053;-75
2023/03/21 19:01:33;;;;;;;20.92;16.38;;;;;;;8.44;100.00;101072.78;10211346;28;20525;-74
2023/03/21 19:06:30;;;;;;;25.92;17.33;;;;;;;8.51;100.00;101075.16;10224524;28;20462;-74
2023/03/21 19:11:26;;;;;;;24.85;18.65;;;;;;;8.48;100.00;101070.31;10228015;28;20111;-74
2023/03/21 19:16:26;;;;;;;24.20;16.77;;;;;;;8.40;100.00;101069.88;10201882;28;20041;-74
2023/03/21 19:21:34;;;;;;;25.88;17.73;;;;;;;8.35;100.00;101067.16;10224476;28;20129;-74
2023/03/21 19:26:30;;;;;;;23.52;18.65;;;;;;;8.36;100.00;101068.00;10216542;28;20046;-74
2023/03/21 19:31:27;;;;;;;26.95;17.95;;;;;;;8.44;100.00;101075.50;10227391;28;20041;-75
2023/03/21 19:36:24;;;;;;;26.05;18.20;;;;;;;8.40;100.00;101063.56;10202672;28;20050;-75
2023/03/21 19:41:22;;;;;;;27.48;16.85;;;;;;;8.50;100.00;101062.66;10215137;28;20045;-75
2023/03/21 19:46:21;;;;;;;25.05;17.65;;;;;;;8.52;100.00;101053.06;10216804;28;20049;-74
2023/03/21 19:51:18;;;;;;;23.70;17.17;;;;;;;8.54;100.00;101041.84;10226949;28;20045;-74
2023/03/21 19:56:26;;;;;;;22.48;17.05;;;;;;;8.58;100.00;101054.59;10225410;28;20136;-74
2023/03/21 20:01:23;;;;;;;22.60;16.35;;;;;;;8.60;100.00;101046.94;10197104;28;20042;-73
2023/03/21 20:06:23;;;;;;;22.73;17.33;;;;;;;8.56;100.00;101034.19;10220500;28;20344;-73
2023/03/21 20:11:20;;;;;;;23.67;16.67;;;;;;;8.55;100.00;101038.84;10221844;28;20078;-73
2023/03/21 20:16:17;;;;;;;23.55;16.30;;;;;;;8.59;100.00;101039.88;10217414;28;20053;-72
2023/03/21 20:21:14;;;;;;;25.02;17.17;;;;;;;8.57;100.00;101025.72;10214708;28;20045;-73
2023/03/21 20:31:19;;;;;;;23.52;17.17;;;;;;;8.57;100.00;101025.72;10145303;26;20068;-77
2023/03/21 20:36:16;;;;;;;25.27;17.90;;;;;;;8.55;100.00;101022.47;10263187;28;20055;-77
2023/03/21 20:41:32;;;;;;;24.70;17.77;;;;;;;8.54;100.00;101025.50;10269440;28;20068;-77
2023/03/21 20:46:29;;;;;;;20.63;16.75;;;;;;;8.55;100.00;101024.41;10293925;28;20395;-74
2023/03/21 20:51:26;;;;;;;20.48;16.90;;;;;;;8.57;100.00;101031.19;10287386;28;20041;-76
2023/03/21 20:56:43;;;;;;;19.67;17.05;;;;;;;8.62;100.00;101027.56;10296127;28;20044;-76
2023/03/21 21:01:41;;;;;;;21.33;17.73;;;;;;;8.67;100.00;101023.94;10299426;28;20090;-76
2023/03/21 21:06:38;;;;;;;21.83;16.05;;;;;;;8.68;100.00;101009.19;10294704;28;20072;-75
2023/03/21 21:11:34;;;;;;;23.35;16.42;;;;;;;8.62;100.00;101001.09;10296706;28;20864;-76
2023/03/21 21:16:51;;;;;;;22.33;16.35;;;;;;;8.64;100.00;101009.00;10305400;28;20047;-77
2023/03/21 21:21:48;;;;;;;21.52;17.42;;;;;;;8.62;100.00;101001.09;10296759;28;20047;-78
2023/03/21 21:26:45;;;;;;;20.27;16.52;;;;;;;8.64;100.00;100993.44;10289436;28;20052;-76
2023/03/21 21:31:47;;;;;;;20.83;16.75;;;;;;;8.64;100.00;100985.28;10290244;28;20037;-81
2023/03/21 21:36:44;;;;;;;;;;;;;;;8.66;100.00;100984.16;10293647;28;20068;-80
2023/03/21 21:41:41;;;;;;;17.33;14.85;;;;;;;8.74;100.00;100980.75;10300976;28;19966;-81
2023/03/21 21:46:38;;;;;;;20.63;14.25;;;;;;;8.82;100.00;100971.91;10296715;28;20461;-77
2023/03/21 21:51:35;;;;;;;18.88;15.27;;;;;;;8.86;100.00;100972.91;10301651;28;20040;-77
2023/03/21 21:56:31;;;;;;;16.83;14.95;;;;;;;8.83;100.00;100966.13;10282668;28;20045;-77
2023/03/21 22:01:29;;;;;;;15.90;13.68;;;;;;;8.87;100.00;100968.28;10295542;28;20046;-77
2023/03/21 22:06:26;;;;;;;16.85;13.20;;;;;;;8.88;100.00;100959.78;10301922;28;20144;-78
2023/03/21 22:11:24;;;;;;;16.08;13.25;;;;;;;8.91;100.00;100963.81;10312916;28;20114;-73
2023/03/21 22:16:21;;;;;;;17.02;13.80;;;;;;;8.89;100.00;100961.41;10302847;28;20075;-73
2023/03/21 22:21:18;;;;;;;14.88;13.10;;;;;;;8.92;100.00;100958.06;10301325;28;20051;-73
2023/03/21 22:26:14;;;;;;;18.60;13.52;;;;;;;8.91;100.00;100948.28;10304733;28;20528;-73
2023/03/21 22:31:15;;;;;;;15.13;13.52;;;;;;;8.89;100.00;100955.97;10303310;28;20110;-72
2023/03/21 22:36:11;;;;;;;17.00;12.23;;;;;;;8.81;100.00;100948.44;10312797;28;20138;-73
2023/03/21 22:41:09;;;;;;;15.75;12.68;;;;;;;8.79;100.00;100945.22;10300869;28;20098;-77